sensor_id;sensor_type;location;lat;lon;timestamp;P1;durP1;ratioP1;P2;durP2;ratioP2
27013;SDS011;14556;52.222;4.510;2022-07-05T00:01:14;4.30;;;1.93;;
27013;SDS011;14556;52.222;4.510;2022-07-05T00:03:41;5.60;;;2.80;;
27013;SDS011;14556;52.222;4.510;2022-07-05T00:06:07;4.83;;;2.03;;
27013;SDS011;14556;52.222;4.510;2022-07-05T00:08:34;3.50;;;2.53;;
27013;SDS011;14556;52.222;4.510;2022-07-05T00:11:00;3.67;;;1.90;;
27013;SDS011;14556;52.222;4.510;2022-07-05T00:13:27;6.00;;;2.30;;
27013;SDS011;14556;52.222;4.510;2022-07-05T00:15:53;3.80;;;2.30;;
27013;SDS011;14556;52.222;4.510;2022-07-05T00:18:20;5.03;;;2.83;;
27013;SDS011;14556;52.222;4.510;2022-07-05T00:20:46;4.57;;;3.50;;
27013;SDS011;14556;52.222;4.510;2022-07-05T00:23:13;5.30;;;3.50;;
27013;SDS011;14556;52.222;4.510;2022-07-05T00:25:39;7.00;;;3.77;;
27013;SDS011;14556;52.222;4.510;2022-07-05T00:28:06;5.40;;;4.03;;
27013;SDS011;14556;52.222;4.510;2022-07-05T00:30:33;5.97;;;3.70;;
27013;SDS011;14556;52.222;4.510;2022-07-05T00:32:59;6.47;;;3.57;;
27013;SDS011;14556;52.222;4.510;2022-07-05T00:35:26;5.43;;;3.73;;
27013;SDS011;14556;52.222;4.510;2022-07-05T00:37:52;5.03;;;3.83;;
27013;SDS011;14556;52.222;4.510;2022-07-05T00:40:19;5.70;;;4.00;;
27013;SDS011;14556;52.222;4.510;2022-07-05T00:42:45;4.30;;;3.70;;
27013;SDS011;14556;52.222;4.510;2022-07-05T00:45:12;6.70;;;4.23;;
27013;SDS011;14556;52.222;4.510;2022-07-05T00:47:38;6.37;;;4.00;;
27013;SDS011;14556;52.222;4.510;2022-07-05T00:50:05;6.20;;;3.60;;
27013;SDS011;14556;52.222;4.510;2022-07-05T00:52:32;5.80;;;3.83;;
27013;SDS011;14556;52.222;4.510;2022-07-05T00:54:59;7.10;;;3.73;;
27013;SDS011;14556;52.222;4.510;2022-07-05T00:57:25;6.90;;;3.40;;
27013;SDS011;14556;52.222;4.510;2022-07-05T00:59:52;5.53;;;3.50;;
27013;SDS011;14556;52.222;4.510;2022-07-05T01:02:19;4.03;;;3.20;;
27013;SDS011;14556;52.222;4.510;2022-07-05T01:04:50;5.03;;;3.77;;
27013;SDS011;14556;52.222;4.510;2022-07-05T01:07:18;6.40;;;3.50;;
27013;SDS011;14556;52.222;4.510;2022-07-05T01:09:45;4.70;;;3.27;;
27013;SDS011;14556;52.222;4.510;2022-07-05T01:12:13;5.07;;;2.90;;
27013;SDS011;14556;52.222;4.510;2022-07-05T01:14:40;5.47;;;2.93;;
27013;SDS011;14556;52.222;4.510;2022-07-05T01:17:09;5.97;;;3.00;;
27013;SDS011;14556;52.222;4.510;2022-07-05T01:19:36;5.20;;;3.37;;
27013;SDS011;14556;52.222;4.510;2022-07-05T01:22:03;5.43;;;3.40;;
27013;SDS011;14556;52.222;4.510;2022-07-05T01:24:36;4.83;;;3.30;;
27013;SDS011;14556;52.222;4.510;2022-07-05T01:27:03;4.43;;;3.10;;
27013;SDS011;14556;52.222;4.510;2022-07-05T01:29:30;6.27;;;3.23;;
27013;SDS011;14556;52.222;4.510;2022-07-05T01:31:56;5.27;;;3.47;;
27013;SDS011;14556;52.222;4.510;2022-07-05T01:34:22;3.93;;;2.87;;
27013;SDS011;14556;52.222;4.510;2022-07-05T01:36:49;5.27;;;3.27;;
27013;SDS011;14556;52.222;4.510;2022-07-05T01:39:16;4.47;;;3.70;;
27013;SDS011;14556;52.222;4.510;2022-07-05T01:41:42;5.83;;;3.40;;
27013;SDS011;14556;52.222;4.510;2022-07-05T01:44:09;6.37;;;3.27;;
27013;SDS011;14556;52.222;4.510;2022-07-05T01:46:37;7.33;;;3.97;;
27013;SDS011;14556;52.222;4.510;2022-07-05T01:49:06;6.47;;;3.90;;
27013;SDS011;14556;52.222;4.510;2022-07-05T01:51:48;8.10;;;4.00;;
27013;SDS011;14556;52.222;4.510;2022-07-05T01:54:18;7.10;;;4.30;;
27013;SDS011;14556;52.222;4.510;2022-07-05T01:56:44;8.57;;;4.60;;
27013;SDS011;14556;52.222;4.510;2022-07-05T01:59:11;6.77;;;4.00;;
27013;SDS011;14556;52.222;4.510;2022-07-05T02:01:38;6.10;;;4.00;;
27013;SDS011;14556;52.222;4.510;2022-07-05T02:04:06;4.70;;;3.93;;
27013;SDS011;14556;52.222;4.510;2022-07-05T02:06:34;10.67;;;4.20;;
27013;SDS011;14556;52.222;4.510;2022-07-05T02:09:02;7.37;;;3.77;;
27013;SDS011;14556;52.222;4.510;2022-07-05T02:11:30;6.97;;;3.63;;
27013;SDS011;14556;52.222;4.510;2022-07-05T02:13:57;8.83;;;4.30;;
27013;SDS011;14556;52.222;4.510;2022-07-05T02:16:24;6.03;;;3.70;;
27013;SDS011;14556;52.222;4.510;2022-07-05T02:18:52;6.33;;;3.60;;
27013;SDS011;14556;52.222;4.510;2022-07-05T02:21:18;6.73;;;3.17;;
27013;SDS011;14556;52.222;4.510;2022-07-05T02:23:45;7.83;;;3.50;;
27013;SDS011;14556;52.222;4.510;2022-07-05T02:26:11;5.17;;;3.93;;
27013;SDS011;14556;52.222;4.510;2022-07-05T02:28:38;6.50;;;3.93;;
27013;SDS011;14556;52.222;4.510;2022-07-05T02:31:05;4.93;;;3.50;;
27013;SDS011;14556;52.222;4.510;2022-07-05T02:33:32;9.07;;;4.20;;
27013;SDS011;14556;52.222;4.510;2022-07-05T02:36:05;4.73;;;4.00;;
27013;SDS011;14556;52.222;4.510;2022-07-05T02:38:36;7.23;;;4.30;;
27013;SDS011;14556;52.222;4.510;2022-07-05T02:41:06;5.57;;;4.17;;
27013;SDS011;14556;52.222;4.510;2022-07-05T02:43:33;6.10;;;3.90;;
27013;SDS011;14556;52.222;4.510;2022-07-05T02:46:00;8.80;;;5.10;;
27013;SDS011;14556;52.222;4.510;2022-07-05T02:48:27;7.00;;;4.60;;
27013;SDS011;14556;52.222;4.510;2022-07-05T02:50:54;7.30;;;5.33;;
27013;SDS011;14556;52.222;4.510;2022-07-05T02:53:20;7.27;;;5.40;;
27013;SDS011;14556;52.222;4.510;2022-07-05T02:55:47;8.83;;;5.10;;
27013;SDS011;14556;52.222;4.510;2022-07-05T02:58:14;8.23;;;5.23;;
27013;SDS011;14556;52.222;4.510;2022-07-05T03:00:40;10.17;;;5.43;;
27013;SDS011;14556;52.222;4.510;2022-07-05T03:03:07;7.43;;;4.93;;
27013;SDS011;14556;52.222;4.510;2022-07-05T03:05:34;6.57;;;5.10;;
27013;SDS011;14556;52.222;4.510;2022-07-05T03:08:00;5.50;;;4.57;;
27013;SDS011;14556;52.222;4.510;2022-07-05T03:10:27;5.70;;;4.30;;
27013;SDS011;14556;52.222;4.510;2022-07-05T03:12:54;5.53;;;4.60;;
27013;SDS011;14556;52.222;4.510;2022-07-05T03:15:20;5.27;;;4.03;;
27013;SDS011;14556;52.222;4.510;2022-07-05T03:17:47;7.43;;;4.27;;
27013;SDS011;14556;52.222;4.510;2022-07-05T03:20:13;9.50;;;4.50;;
27013;SDS011;14556;52.222;4.510;2022-07-05T03:22:40;6.07;;;4.17;;
27013;SDS011;14556;52.222;4.510;2022-07-05T03:25:06;6.47;;;3.87;;
27013;SDS011;14556;52.222;4.510;2022-07-05T03:27:33;6.87;;;4.30;;
27013;SDS011;14556;52.222;4.510;2022-07-05T03:30:00;6.20;;;4.50;;
27013;SDS011;14556;52.222;4.510;2022-07-05T03:32:27;6.77;;;4.20;;
27013;SDS011;14556;52.222;4.510;2022-07-05T03:34:54;6.03;;;3.87;;
27013;SDS011;14556;52.222;4.510;2022-07-05T03:37:20;8.17;;;4.03;;
27013;SDS011;14556;52.222;4.510;2022-07-05T03:39:47;5.27;;;3.97;;
27013;SDS011;14556;52.222;4.510;2022-07-05T03:42:13;6.63;;;3.47;;
27013;SDS011;14556;52.222;4.510;2022-07-05T03:44:40;4.40;;;4.00;;
27013;SDS011;14556;52.222;4.510;2022-07-05T03:47:06;5.10;;;3.67;;
27013;SDS011;14556;52.222;4.510;2022-07-05T03:49:33;6.00;;;4.13;;
27013;SDS011;14556;52.222;4.510;2022-07-05T03:52:03;5.20;;;3.90;;
27013;SDS011;14556;52.222;4.510;2022-07-05T03:54:30;8.93;;;4.00;;
27013;SDS011;14556;52.222;4.510;2022-07-05T03:56:56;6.07;;;3.57;;
27013;SDS011;14556;52.222;4.510;2022-07-05T03:59:23;5.10;;;3.37;;
27013;SDS011;14556;52.222;4.510;2022-07-05T04:01:49;7.87;;;3.53;;
27013;SDS011;14556;52.222;4.510;2022-07-05T04:04:16;4.33;;;3.03;;
27013;SDS011;14556;52.222;4.510;2022-07-05T04:06:42;6.00;;;3.20;;
27013;SDS011;14556;52.222;4.510;2022-07-05T04:09:09;4.97;;;3.53;;
27013;SDS011;14556;52.222;4.510;2022-07-05T04:11:36;5.70;;;3.03;;
27013;SDS011;14556;52.222;4.510;2022-07-05T04:14:03;4.80;;;3.13;;
27013;SDS011;14556;52.222;4.510;2022-07-05T04:16:30;6.93;;;2.93;;
27013;SDS011;14556;52.222;4.510;2022-07-05T04:18:56;5.70;;;3.00;;
27013;SDS011;14556;52.222;4.510;2022-07-05T04:21:23;5.10;;;2.80;;
27013;SDS011;14556;52.222;4.510;2022-07-05T04:23:49;3.90;;;3.00;;
27013;SDS011;14556;52.222;4.510;2022-07-05T04:26:16;7.20;;;3.00;;
27013;SDS011;14556;52.222;4.510;2022-07-05T04:28:43;6.37;;;3.20;;
27013;SDS011;14556;52.222;4.510;2022-07-05T04:31:10;5.00;;;3.00;;
27013;SDS011;14556;52.222;4.510;2022-07-05T04:33:37;3.80;;;3.00;;
27013;SDS011;14556;52.222;4.510;2022-07-05T04:36:04;4.60;;;3.30;;
27013;SDS011;14556;52.222;4.510;2022-07-05T04:38:31;5.10;;;2.50;;
27013;SDS011;14556;52.222;4.510;2022-07-05T04:40:57;6.70;;;3.20;;
27013;SDS011;14556;52.222;4.510;2022-07-05T04:43:24;7.80;;;3.43;;
27013;SDS011;14556;52.222;4.510;2022-07-05T04:45:50;7.67;;;3.63;;
27013;SDS011;14556;52.222;4.510;2022-07-05T04:48:22;7.97;;;3.40;;
27013;SDS011;14556;52.222;4.510;2022-07-05T04:50:48;6.27;;;2.90;;
27013;SDS011;14556;52.222;4.510;2022-07-05T04:53:15;5.93;;;2.97;;
27013;SDS011;14556;52.222;4.510;2022-07-05T04:55:41;4.30;;;3.03;;
27013;SDS011;14556;52.222;4.510;2022-07-05T04:58:08;6.10;;;3.27;;
27013;SDS011;14556;52.222;4.510;2022-07-05T05:00:35;5.37;;;3.00;;
27013;SDS011;14556;52.222;4.510;2022-07-05T05:03:01;5.83;;;2.83;;
27013;SDS011;14556;52.222;4.510;2022-07-05T05:05:28;7.33;;;3.10;;
27013;SDS011;14556;52.222;4.510;2022-07-05T05:07:54;8.37;;;3.20;;
27013;SDS011;14556;52.222;4.510;2022-07-05T05:10:21;4.07;;;2.83;;
27013;SDS011;14556;52.222;4.510;2022-07-05T05:12:47;7.60;;;2.73;;
27013;SDS011;14556;52.222;4.510;2022-07-05T05:15:14;6.47;;;2.87;;
27013;SDS011;14556;52.222;4.510;2022-07-05T05:17:42;4.73;;;2.47;;
27013;SDS011;14556;52.222;4.510;2022-07-05T05:20:10;4.43;;;2.13;;
27013;SDS011;14556;52.222;4.510;2022-07-05T05:22:38;4.23;;;2.40;;
27013;SDS011;14556;52.222;4.510;2022-07-05T05:25:05;3.23;;;2.40;;
27013;SDS011;14556;52.222;4.510;2022-07-05T05:27:33;4.33;;;2.17;;
27013;SDS011;14556;52.222;4.510;2022-07-05T05:29:59;5.67;;;2.03;;
27013;SDS011;14556;52.222;4.510;2022-07-05T05:32:26;3.53;;;1.70;;
27013;SDS011;14556;52.222;4.510;2022-07-05T05:34:53;3.50;;;1.83;;
27013;SDS011;14556;52.222;4.510;2022-07-05T05:37:19;3.00;;;1.53;;
27013;SDS011;14556;52.222;4.510;2022-07-05T05:39:45;5.27;;;2.00;;
27013;SDS011;14556;52.222;4.510;2022-07-05T05:42:12;2.30;;;1.70;;
27013;SDS011;14556;52.222;4.510;2022-07-05T05:44:39;8.33;;;1.70;;
27013;SDS011;14556;52.222;4.510;2022-07-05T05:47:05;4.07;;;1.80;;
27013;SDS011;14556;52.222;4.510;2022-07-05T05:49:32;4.33;;;1.67;;
27013;SDS011;14556;52.222;4.510;2022-07-05T05:51:58;2.87;;;1.40;;
27013;SDS011;14556;52.222;4.510;2022-07-05T05:54:25;2.80;;;1.63;;
27013;SDS011;14556;52.222;4.510;2022-07-05T05:56:51;2.90;;;1.87;;
27013;SDS011;14556;52.222;4.510;2022-07-05T05:59:18;1.00;;;0.90;;
27013;SDS011;14556;52.222;4.510;2022-07-05T06:01:44;1.67;;;0.97;;
27013;SDS011;14556;52.222;4.510;2022-07-05T06:04:10;2.03;;;0.97;;
27013;SDS011;14556;52.222;4.510;2022-07-05T06:06:40;1.80;;;1.00;;
27013;SDS011;14556;52.222;4.510;2022-07-05T06:09:06;3.53;;;0.80;;
27013;SDS011;14556;52.222;4.510;2022-07-05T06:11:33;2.63;;;0.87;;
27013;SDS011;14556;52.222;4.510;2022-07-05T06:13:59;1.50;;;1.00;;
27013;SDS011;14556;52.222;4.510;2022-07-05T06:16:25;1.57;;;0.90;;
27013;SDS011;14556;52.222;4.510;2022-07-05T06:18:52;1.23;;;0.90;;
27013;SDS011;14556;52.222;4.510;2022-07-05T06:21:18;1.97;;;0.80;;
27013;SDS011;14556;52.222;4.510;2022-07-05T06:23:45;3.77;;;0.93;;
27013;SDS011;14556;52.222;4.510;2022-07-05T06:26:11;2.03;;;0.80;;
27013;SDS011;14556;52.222;4.510;2022-07-05T06:28:38;2.57;;;1.00;;
27013;SDS011;14556;52.222;4.510;2022-07-05T06:31:05;2.53;;;0.83;;
27013;SDS011;14556;52.222;4.510;2022-07-05T06:33:31;1.47;;;0.70;;
27013;SDS011;14556;52.222;4.510;2022-07-05T06:35:58;1.27;;;0.70;;
27013;SDS011;14556;52.222;4.510;2022-07-05T06:38:24;1.20;;;0.70;;
27013;SDS011;14556;52.222;4.510;2022-07-05T06:40:51;2.20;;;1.07;;
27013;SDS011;14556;52.222;4.510;2022-07-05T06:43:17;3.17;;;0.70;;
27013;SDS011;14556;52.222;4.510;2022-07-05T06:45:44;1.33;;;0.80;;
27013;SDS011;14556;52.222;4.510;2022-07-05T06:48:10;4.20;;;1.17;;
27013;SDS011;14556;52.222;4.510;2022-07-05T06:50:38;4.93;;;1.03;;
27013;SDS011;14556;52.222;4.510;2022-07-05T06:53:07;3.90;;;1.13;;
27013;SDS011;14556;52.222;4.510;2022-07-05T06:55:34;3.13;;;1.13;;
27013;SDS011;14556;52.222;4.510;2022-07-05T06:58:04;5.40;;;1.10;;
27013;SDS011;14556;52.222;4.510;2022-07-05T07:00:39;2.50;;;0.63;;
27013;SDS011;14556;52.222;4.510;2022-07-05T07:03:27;5.87;;;0.63;;
27013;SDS011;14556;52.222;4.510;2022-07-05T07:06:13;2.53;;;0.60;;
27013;SDS011;14556;52.222;4.510;2022-07-05T07:08:42;1.23;;;0.80;;
27013;SDS011;14556;52.222;4.510;2022-07-05T07:11:27;1.20;;;0.60;;
27013;SDS011;14556;52.222;4.510;2022-07-05T07:13:54;1.33;;;0.60;;
27013;SDS011;14556;52.222;4.510;2022-07-05T07:16:20;1.53;;;0.70;;
27013;SDS011;14556;52.222;4.510;2022-07-05T07:18:47;3.00;;;0.60;;
27013;SDS011;14556;52.222;4.510;2022-07-05T07:21:35;4.90;;;0.70;;
27013;SDS011;14556;52.222;4.510;2022-07-05T07:24:01;2.47;;;0.80;;
27013;SDS011;14556;52.222;4.510;2022-07-05T07:26:28;3.97;;;0.90;;
27013;SDS011;14556;52.222;4.510;2022-07-05T07:28:54;3.00;;;0.53;;
27013;SDS011;14556;52.222;4.510;2022-07-05T07:31:21;1.10;;;0.50;;
27013;SDS011;14556;52.222;4.510;2022-07-05T07:33:47;2.00;;;0.60;;
27013;SDS011;14556;52.222;4.510;2022-07-05T07:36:16;3.43;;;0.60;;
27013;SDS011;14556;52.222;4.510;2022-07-05T07:38:42;2.60;;;1.07;;
27013;SDS011;14556;52.222;4.510;2022-07-05T07:41:08;3.43;;;0.70;;
27013;SDS011;14556;52.222;4.510;2022-07-05T07:43:35;2.83;;;0.60;;
27013;SDS011;14556;52.222;4.510;2022-07-05T07:46:02;3.53;;;0.70;;
27013;SDS011;14556;52.222;4.510;2022-07-05T07:48:29;1.43;;;0.60;;
27013;SDS011;14556;52.222;4.510;2022-07-05T07:50:56;3.13;;;0.80;;
27013;SDS011;14556;52.222;4.510;2022-07-05T07:53:22;4.73;;;0.70;;
27013;SDS011;14556;52.222;4.510;2022-07-05T07:55:49;1.83;;;0.67;;
27013;SDS011;14556;52.222;4.510;2022-07-05T07:58:16;3.07;;;0.90;;
27013;SDS011;14556;52.222;4.510;2022-07-05T08:00:42;3.30;;;1.00;;
27013;SDS011;14556;52.222;4.510;2022-07-05T08:03:09;4.93;;;0.80;;
27013;SDS011;14556;52.222;4.510;2022-07-05T08:05:35;2.80;;;0.77;;
27013;SDS011;14556;52.222;4.510;2022-07-05T08:08:02;3.70;;;0.90;;
27013;SDS011;14556;52.222;4.510;2022-07-05T08:10:28;3.70;;;0.70;;
27013;SDS011;14556;52.222;4.510;2022-07-05T08:12:55;2.10;;;0.70;;
27013;SDS011;14556;52.222;4.510;2022-07-05T08:15:21;2.17;;;1.27;;
27013;SDS011;14556;52.222;4.510;2022-07-05T08:17:48;0.93;;;0.80;;
27013;SDS011;14556;52.222;4.510;2022-07-05T08:20:33;2.93;;;0.97;;
27013;SDS011;14556;52.222;4.510;2022-07-05T08:23:17;2.63;;;0.70;;
27013;SDS011;14556;52.222;4.510;2022-07-05T08:25:44;2.87;;;0.60;;
27013;SDS011;14556;52.222;4.510;2022-07-05T08:28:10;3.83;;;0.97;;
27013;SDS011;14556;52.222;4.510;2022-07-05T08:30:37;5.47;;;0.80;;
27013;SDS011;14556;52.222;4.510;2022-07-05T08:33:03;1.90;;;0.60;;
27013;SDS011;14556;52.222;4.510;2022-07-05T08:35:30;1.97;;;0.70;;
27013;SDS011;14556;52.222;4.510;2022-07-05T08:37:56;1.80;;;0.53;;
27013;SDS011;14556;52.222;4.510;2022-07-05T08:40:25;1.60;;;0.60;;
27013;SDS011;14556;52.222;4.510;2022-07-05T08:42:54;1.93;;;0.70;;
27013;SDS011;14556;52.222;4.510;2022-07-05T08:45:23;2.60;;;0.70;;
27013;SDS011;14556;52.222;4.510;2022-07-05T08:47:51;1.97;;;0.70;;
27013;SDS011;14556;52.222;4.510;2022-07-05T08:50:19;3.43;;;0.80;;
27013;SDS011;14556;52.222;4.510;2022-07-05T08:52:47;4.47;;;0.67;;
27013;SDS011;14556;52.222;4.510;2022-07-05T08:55:15;2.43;;;0.70;;
27013;SDS011;14556;52.222;4.510;2022-07-05T08:57:41;2.30;;;0.70;;
27013;SDS011;14556;52.222;4.510;2022-07-05T09:00:08;3.97;;;0.70;;
27013;SDS011;14556;52.222;4.510;2022-07-05T09:02:35;1.90;;;0.77;;
27013;SDS011;14556;52.222;4.510;2022-07-05T09:05:02;3.17;;;0.70;;
27013;SDS011;14556;52.222;4.510;2022-07-05T09:07:30;3.87;;;1.13;;
27013;SDS011;14556;52.222;4.510;2022-07-05T09:09:59;3.40;;;0.90;;
27013;SDS011;14556;52.222;4.510;2022-07-05T09:12:27;1.23;;;0.50;;
27013;SDS011;14556;52.222;4.510;2022-07-05T09:14:54;2.37;;;0.60;;
27013;SDS011;14556;52.222;4.510;2022-07-05T09:17:21;1.40;;;0.50;;
27013;SDS011;14556;52.222;4.510;2022-07-05T09:20:04;9.00;;;0.80;;
27013;SDS011;14556;52.222;4.510;2022-07-05T09:22:42;1.30;;;0.60;;
27013;SDS011;14556;52.222;4.510;2022-07-05T09:25:13;1.93;;;0.60;;
27013;SDS011;14556;52.222;4.510;2022-07-05T09:27:50;2.73;;;1.20;;
27013;SDS011;14556;52.222;4.510;2022-07-05T09:33:04;3.00;;;0.70;;
27013;SDS011;14556;52.222;4.510;2022-07-05T09:35:36;2.50;;;0.80;;
27013;SDS011;14556;52.222;4.510;2022-07-05T09:38:06;1.33;;;0.60;;
27013;SDS011;14556;52.222;4.510;2022-07-05T09:40:54;1.37;;;0.67;;
27013;SDS011;14556;52.222;4.510;2022-07-05T09:43:23;2.33;;;0.80;;
27013;SDS011;14556;52.222;4.510;2022-07-05T09:45:55;1.40;;;0.50;;
27013;SDS011;14556;52.222;4.510;2022-07-05T09:48:23;2.27;;;0.60;;
27013;SDS011;14556;52.222;4.510;2022-07-05T09:51:05;1.30;;;0.70;;
27013;SDS011;14556;52.222;4.510;2022-07-05T09:53:53;2.43;;;0.70;;
27013;SDS011;14556;52.222;4.510;2022-07-05T09:56:26;1.67;;;0.60;;
27013;SDS011;14556;52.222;4.510;2022-07-05T09:59:11;3.23;;;0.87;;
27013;SDS011;14556;52.222;4.510;2022-07-05T10:01:39;1.23;;;0.50;;
27013;SDS011;14556;52.222;4.510;2022-07-05T10:04:08;6.23;;;0.87;;
27013;SDS011;14556;52.222;4.510;2022-07-05T10:06:35;2.97;;;0.73;;
27013;SDS011;14556;52.222;4.510;2022-07-05T10:09:02;4.37;;;0.87;;
27013;SDS011;14556;52.222;4.510;2022-07-05T10:11:30;3.97;;;0.70;;
27013;SDS011;14556;52.222;4.510;2022-07-05T10:13:58;1.87;;;0.60;;
27013;SDS011;14556;52.222;4.510;2022-07-05T10:16:25;4.60;;;0.90;;
27013;SDS011;14556;52.222;4.510;2022-07-05T10:18:53;2.07;;;0.63;;
27013;SDS011;14556;52.222;4.510;2022-07-05T10:21:22;2.20;;;0.60;;
27013;SDS011;14556;52.222;4.510;2022-07-05T10:23:51;1.03;;;0.57;;
27013;SDS011;14556;52.222;4.510;2022-07-05T10:26:20;1.50;;;0.50;;
27013;SDS011;14556;52.222;4.510;2022-07-05T10:28:50;2.33;;;0.70;;
27013;SDS011;14556;52.222;4.510;2022-07-05T10:31:26;2.33;;;0.50;;
27013;SDS011;14556;52.222;4.510;2022-07-05T10:33:55;1.73;;;0.63;;
27013;SDS011;14556;52.222;4.510;2022-07-05T10:36:23;1.80;;;0.60;;
27013;SDS011;14556;52.222;4.510;2022-07-05T10:38:50;3.33;;;0.80;;
27013;SDS011;14556;52.222;4.510;2022-07-05T10:41:18;1.60;;;0.50;;
27013;SDS011;14556;52.222;4.510;2022-07-05T10:43:53;2.67;;;0.50;;
27013;SDS011;14556;52.222;4.510;2022-07-05T10:46:36;8.17;;;0.87;;
27013;SDS011;14556;52.222;4.510;2022-07-05T10:49:14;1.73;;;0.80;;
27013;SDS011;14556;52.222;4.510;2022-07-05T10:51:43;2.67;;;0.70;;
27013;SDS011;14556;52.222;4.510;2022-07-05T10:54:16;0.90;;;0.43;;
27013;SDS011;14556;52.222;4.510;2022-07-05T10:57:08;1.90;;;0.50;;
27013;SDS011;14556;52.222;4.510;2022-07-05T11:00:05;0.83;;;0.40;;
27013;SDS011;14556;52.222;4.510;2022-07-05T11:02:32;2.83;;;0.70;;
27013;SDS011;14556;52.222;4.510;2022-07-05T11:04:59;1.83;;;0.40;;
27013;SDS011;14556;52.222;4.510;2022-07-05T11:10:24;1.93;;;0.70;;
27013;SDS011;14556;52.222;4.510;2022-07-05T11:12:51;1.70;;;0.60;;
27013;SDS011;14556;52.222;4.510;2022-07-05T11:15:18;0.40;;;0.40;;
27013;SDS011;14556;52.222;4.510;2022-07-05T11:17:44;2.70;;;0.60;;
27013;SDS011;14556;52.222;4.510;2022-07-05T11:23:06;1.47;;;0.60;;
27013;SDS011;14556;52.222;4.510;2022-07-05T11:25:39;1.33;;;0.40;;
27013;SDS011;14556;52.222;4.510;2022-07-05T11:28:12;0.40;;;0.40;;
27013;SDS011;14556;52.222;4.510;2022-07-05T11:33:27;0.30;;;0.30;;
27013;SDS011;14556;52.222;4.510;2022-07-05T11:35:55;1.53;;;0.50;;
27013;SDS011;14556;52.222;4.510;2022-07-05T11:38:23;0.97;;;0.47;;
27013;SDS011;14556;52.222;4.510;2022-07-05T11:40:55;2.90;;;0.63;;
27013;SDS011;14556;52.222;4.510;2022-07-05T11:43:28;1.47;;;0.60;;
27013;SDS011;14556;52.222;4.510;2022-07-05T11:45:56;0.83;;;0.50;;
27013;SDS011;14556;52.222;4.510;2022-07-05T11:48:28;0.60;;;0.40;;
27013;SDS011;14556;52.222;4.510;2022-07-05T11:50:55;2.90;;;0.70;;
27013;SDS011;14556;52.222;4.510;2022-07-05T11:53:29;1.27;;;0.40;;
27013;SDS011;14556;52.222;4.510;2022-07-05T11:56:18;1.27;;;0.40;;
27013;SDS011;14556;52.222;4.510;2022-07-05T11:58:45;1.67;;;0.77;;
27013;SDS011;14556;52.222;4.510;2022-07-05T12:01:11;2.87;;;0.80;;
27013;SDS011;14556;52.222;4.510;2022-07-05T12:03:39;2.53;;;0.80;;
27013;SDS011;14556;52.222;4.510;2022-07-05T12:06:12;4.07;;;0.57;;
27013;SDS011;14556;52.222;4.510;2022-07-05T12:08:39;2.10;;;0.80;;
27013;SDS011;14556;52.222;4.510;2022-07-05T12:11:06;2.80;;;0.67;;
27013;SDS011;14556;52.222;4.510;2022-07-05T12:13:54;2.60;;;0.63;;
27013;SDS011;14556;52.222;4.510;2022-07-05T12:16:21;4.00;;;0.70;;
27013;SDS011;14556;52.222;4.510;2022-07-05T12:18:51;3.33;;;0.90;;
27013;SDS011;14556;52.222;4.510;2022-07-05T12:21:18;3.53;;;1.00;;
27013;SDS011;14556;52.222;4.510;2022-07-05T12:23:48;2.67;;;0.87;;
27013;SDS011;14556;52.222;4.510;2022-07-05T12:26:16;1.53;;;1.13;;
27013;SDS011;14556;52.222;4.510;2022-07-05T12:28:45;0.90;;;0.60;;
27013;SDS011;14556;52.222;4.510;2022-07-05T12:33:46;4.77;;;1.00;;
27013;SDS011;14556;52.222;4.510;2022-07-05T12:36:13;1.57;;;0.83;;
27013;SDS011;14556;52.222;4.510;2022-07-05T12:38:41;6.23;;;1.23;;
27013;SDS011;14556;52.222;4.510;2022-07-05T12:41:08;5.47;;;1.20;;
27013;SDS011;14556;52.222;4.510;2022-07-05T12:43:51;3.67;;;0.93;;
27013;SDS011;14556;52.222;4.510;2022-07-05T12:46:18;4.30;;;1.17;;
27013;SDS011;14556;52.222;4.510;2022-07-05T12:48:51;3.53;;;1.00;;
27013;SDS011;14556;52.222;4.510;2022-07-05T12:51:35;3.17;;;1.20;;
27013;SDS011;14556;52.222;4.510;2022-07-05T12:54:03;2.90;;;1.00;;
27013;SDS011;14556;52.222;4.510;2022-07-05T12:56:52;3.13;;;0.90;;
27013;SDS011;14556;52.222;4.510;2022-07-05T13:00:04;1.60;;;0.87;;
27013;SDS011;14556;52.222;4.510;2022-07-05T13:02:44;1.43;;;0.80;;
27013;SDS011;14556;52.222;4.510;2022-07-05T13:05:19;3.93;;;0.97;;
27013;SDS011;14556;52.222;4.510;2022-07-05T13:07:49;2.80;;;0.97;;
27013;SDS011;14556;52.222;4.510;2022-07-05T13:10:20;2.70;;;0.80;;
27013;SDS011;14556;52.222;4.510;2022-07-05T13:12:48;3.63;;;1.00;;
27013;SDS011;14556;52.222;4.510;2022-07-05T13:15:15;3.37;;;1.13;;
27013;SDS011;14556;52.222;4.510;2022-07-05T13:17:43;7.30;;;1.10;;
27013;SDS011;14556;52.222;4.510;2022-07-05T13:20:13;1.70;;;0.93;;
27013;SDS011;14556;52.222;4.510;2022-07-05T13:22:41;1.10;;;0.90;;
27013;SDS011;14556;52.222;4.510;2022-07-05T13:25:08;3.60;;;0.90;;
27013;SDS011;14556;52.222;4.510;2022-07-05T13:27:35;3.10;;;0.90;;
27013;SDS011;14556;52.222;4.510;2022-07-05T13:30:02;1.37;;;0.93;;
27013;SDS011;14556;52.222;4.510;2022-07-05T13:32:29;4.30;;;0.83;;
27013;SDS011;14556;52.222;4.510;2022-07-05T13:34:57;2.97;;;0.83;;
27013;SDS011;14556;52.222;4.510;2022-07-05T13:37:24;1.40;;;0.80;;
27013;SDS011;14556;52.222;4.510;2022-07-05T13:39:50;3.10;;;0.93;;
27013;SDS011;14556;52.222;4.510;2022-07-05T13:42:17;2.47;;;0.93;;
27013;SDS011;14556;52.222;4.510;2022-07-05T13:44:43;4.90;;;1.17;;
27013;SDS011;14556;52.222;4.510;2022-07-05T13:47:11;5.37;;;1.10;;
27013;SDS011;14556;52.222;4.510;2022-07-05T13:49:38;2.63;;;0.93;;
27013;SDS011;14556;52.222;4.510;2022-07-05T13:52:07;1.60;;;0.80;;
27013;SDS011;14556;52.222;4.510;2022-07-05T13:54:34;3.40;;;1.13;;
27013;SDS011;14556;52.222;4.510;2022-07-05T13:57:01;2.20;;;1.17;;
27013;SDS011;14556;52.222;4.510;2022-07-05T13:59:27;2.43;;;1.10;;
27013;SDS011;14556;52.222;4.510;2022-07-05T14:01:55;1.93;;;0.97;;
27013;SDS011;14556;52.222;4.510;2022-07-05T14:04:23;4.57;;;1.23;;
27013;SDS011;14556;52.222;4.510;2022-07-05T14:06:51;4.57;;;1.13;;
27013;SDS011;14556;52.222;4.510;2022-07-05T14:09:18;6.20;;;1.30;;
27013;SDS011;14556;52.222;4.510;2022-07-05T14:11:49;3.47;;;1.37;;
27013;SDS011;14556;52.222;4.510;2022-07-05T14:14:16;4.97;;;1.10;;
27013;SDS011;14556;52.222;4.510;2022-07-05T14:16:42;4.13;;;1.10;;
27013;SDS011;14556;52.222;4.510;2022-07-05T14:19:09;3.23;;;1.30;;
27013;SDS011;14556;52.222;4.510;2022-07-05T14:21:38;2.10;;;1.00;;
27013;SDS011;14556;52.222;4.510;2022-07-05T14:24:05;5.53;;;1.23;;
27013;SDS011;14556;52.222;4.510;2022-07-05T14:26:32;6.50;;;1.70;;
27013;SDS011;14556;52.222;4.510;2022-07-05T14:28:59;3.80;;;1.57;;
27013;SDS011;14556;52.222;4.510;2022-07-05T14:31:27;1.90;;;1.00;;
27013;SDS011;14556;52.222;4.510;2022-07-05T14:33:57;6.23;;;1.30;;
27013;SDS011;14556;52.222;4.510;2022-07-05T14:36:24;3.83;;;1.37;;
27013;SDS011;14556;52.222;4.510;2022-07-05T14:38:50;3.03;;;1.00;;
27013;SDS011;14556;52.222;4.510;2022-07-05T14:41:17;2.53;;;1.20;;
27013;SDS011;14556;52.222;4.510;2022-07-05T14:43:44;3.30;;;1.03;;
27013;SDS011;14556;52.222;4.510;2022-07-05T14:46:10;2.03;;;1.10;;
27013;SDS011;14556;52.222;4.510;2022-07-05T14:48:44;7.73;;;1.40;;
27013;SDS011;14556;52.222;4.510;2022-07-05T14:51:11;2.30;;;0.90;;
27013;SDS011;14556;52.222;4.510;2022-07-05T14:53:38;3.00;;;0.93;;
27013;SDS011;14556;52.222;4.510;2022-07-05T14:56:04;2.70;;;0.97;;
27013;SDS011;14556;52.222;4.510;2022-07-05T14:58:31;2.60;;;0.97;;
27013;SDS011;14556;52.222;4.510;2022-07-05T15:00:58;3.10;;;1.23;;
27013;SDS011;14556;52.222;4.510;2022-07-05T15:03:25;2.20;;;0.97;;
27013;SDS011;14556;52.222;4.510;2022-07-05T15:05:52;2.10;;;0.93;;
27013;SDS011;14556;52.222;4.510;2022-07-05T15:08:19;3.47;;;1.07;;
27013;SDS011;14556;52.222;4.510;2022-07-05T15:10:46;3.67;;;1.00;;